sensor_id;sensor_type;location;lat;lon;timestamp;P1;durP1;ratioP1;P2;durP2;ratioP2
4694;SDS011;2361;49.540;8.390;2023-12-29T00:00:10;6.05;;;3.20;;
4694;SDS011;2361;49.540;8.390;2023-12-29T00:02:32;3.35;;;3.05;;
4694;SDS011;2361;49.540;8.390;2023-12-29T00:04:54;4.50;;;4.00;;
4694;SDS011;2361;49.540;8.390;2023-12-29T00:07:16;4.23;;;3.60;;
4694;SDS011;2361;49.540;8.390;2023-12-29T00:09:42;3.15;;;2.95;;
4694;SDS011;2361;49.540;8.390;2023-12-29T00:12:04;2.90;;;2.70;;
4694;SDS011;2361;49.540;8.390;2023-12-29T00:14:26;3.20;;;2.90;;
4694;SDS011;2361;49.540;8.390;2023-12-29T00:16:48;2.60;;;2.50;;
4694;SDS011;2361;49.540;8.390;2023-12-29T00:19:10;2.90;;;2.70;;
4694;SDS011;2361;49.540;8.390;2023-12-29T00:21:33;2.50;;;2.30;;
4694;SDS011;2361;49.540;8.390;2023-12-29T00:23:57;2.10;;;2.00;;
4694;SDS011;2361;49.540;8.390;2023-12-29T00:26:19;2.28;;;2.17;;
4694;SDS011;2361;49.540;8.390;2023-12-29T00:28:41;2.00;;;1.90;;
4694;SDS011;2361;49.540;8.390;2023-12-29T00:31:03;1.85;;;1.80;;
4694;SDS011;2361;49.540;8.390;2023-12-29T00:33:26;2.15;;;2.05;;
4694;SDS011;2361;49.540;8.390;2023-12-29T00:35:49;2.10;;;2.00;;
4694;SDS011;2361;49.540;8.390;2023-12-29T00:38:11;2.60;;;2.05;;
4694;SDS011;2361;49.540;8.390;2023-12-29T00:40:33;1.70;;;1.60;;
4694;SDS011;2361;49.540;8.390;2023-12-29T00:42:55;2.15;;;2.03;;
4694;SDS011;2361;49.540;8.390;2023-12-29T00:45:17;2.70;;;2.20;;
4694;SDS011;2361;49.540;8.390;2023-12-29T00:47:39;2.33;;;2.17;;
4694;SDS011;2361;49.540;8.390;2023-12-29T00:50:01;2.60;;;2.40;;
4694;SDS011;2361;49.540;8.390;2023-12-29T00:52:23;2.40;;;2.30;;
4694;SDS011;2361;49.540;8.390;2023-12-29T00:54:45;2.58;;;2.38;;
4694;SDS011;2361;49.540;8.390;2023-12-29T00:57:07;3.03;;;2.83;;
4694;SDS011;2361;49.540;8.390;2023-12-29T00:59:29;2.15;;;2.05;;
4694;SDS011;2361;49.540;8.390;2023-12-29T01:01:50;2.10;;;1.90;;
4694;SDS011;2361;49.540;8.390;2023-12-29T01:04:13;2.00;;;1.90;;
4694;SDS011;2361;49.540;8.390;2023-12-29T01:06:35;1.83;;;1.73;;
4694;SDS011;2361;49.540;8.390;2023-12-29T01:08:57;1.70;;;1.60;;
4694;SDS011;2361;49.540;8.390;2023-12-29T01:11:19;1.90;;;1.80;;
4694;SDS011;2361;49.540;8.390;2023-12-29T01:13:41;1.88;;;1.77;;
4694;SDS011;2361;49.540;8.390;2023-12-29T01:16:03;1.77;;;1.67;;
4694;SDS011;2361;49.540;8.390;2023-12-29T01:18:25;1.80;;;1.70;;
4694;SDS011;2361;49.540;8.390;2023-12-29T01:20:47;1.88;;;1.77;;
4694;SDS011;2361;49.540;8.390;2023-12-29T01:23:09;1.80;;;1.70;;
4694;SDS011;2361;49.540;8.390;2023-12-29T01:25:31;1.90;;;1.80;;
4694;SDS011;2361;49.540;8.390;2023-12-29T01:27:53;1.70;;;1.60;;
4694;SDS011;2361;49.540;8.390;2023-12-29T01:30:15;2.30;;;1.90;;
4694;SDS011;2361;49.540;8.390;2023-12-29T01:32:37;1.80;;;1.70;;
4694;SDS011;2361;49.540;8.390;2023-12-29T01:34:59;2.10;;;1.90;;
4694;SDS011;2361;49.540;8.390;2023-12-29T01:37:21;2.00;;;1.90;;
4694;SDS011;2361;49.540;8.390;2023-12-29T01:39:43;2.58;;;2.40;;
4694;SDS011;2361;49.540;8.390;2023-12-29T01:42:05;2.60;;;2.40;;
4694;SDS011;2361;49.540;8.390;2023-12-29T01:44:28;3.42;;;3.15;;
4694;SDS011;2361;49.540;8.390;2023-12-29T01:46:50;3.30;;;3.00;;
4694;SDS011;2361;49.540;8.390;2023-12-29T01:49:15;3.80;;;3.37;;
4694;SDS011;2361;49.540;8.390;2023-12-29T01:51:41;3.83;;;3.40;;
4694;SDS011;2361;49.540;8.390;2023-12-29T01:54:04;3.30;;;3.10;;
4694;SDS011;2361;49.540;8.390;2023-12-29T01:56:26;4.38;;;3.30;;
4694;SDS011;2361;49.540;8.390;2023-12-29T01:58:49;4.40;;;3.30;;
4694;SDS011;2361;49.540;8.390;2023-12-29T02:01:12;3.63;;;3.22;;
4694;SDS011;2361;49.540;8.390;2023-12-29T02:03:36;3.20;;;2.90;;
4694;SDS011;2361;49.540;8.390;2023-12-29T02:05:59;3.00;;;2.70;;
4694;SDS011;2361;49.540;8.390;2023-12-29T02:08:22;3.85;;;3.10;;
4694;SDS011;2361;49.540;8.390;2023-12-29T02:10:44;3.40;;;3.10;;
4694;SDS011;2361;49.540;8.390;2023-12-29T02:13:06;4.20;;;3.67;;
4694;SDS011;2361;49.540;8.390;2023-12-29T02:15:28;5.60;;;3.70;;
4694;SDS011;2361;49.540;8.390;2023-12-29T02:17:56;3.53;;;3.22;;
4694;SDS011;2361;49.540;8.390;2023-12-29T02:20:24;3.30;;;3.00;;
4694;SDS011;2361;49.540;8.390;2023-12-29T02:22:46;3.90;;;3.20;;
4694;SDS011;2361;49.540;8.390;2023-12-29T02:25:08;3.70;;;3.40;;
4694;SDS011;2361;49.540;8.390;2023-12-29T02:30:20;2.50;;;2.30;;
4694;SDS011;2361;49.540;8.390;2023-12-29T02:33:00;2.10;;;2.00;;
4694;SDS011;2361;49.540;8.390;2023-12-29T02:35:31;2.90;;;2.10;;
4694;SDS011;2361;49.540;8.390;2023-12-29T02:37:57;1.90;;;1.80;;
4694;SDS011;2361;49.540;8.390;2023-12-29T02:40:20;1.95;;;1.77;;
4694;SDS011;2361;49.540;8.390;2023-12-29T02:42:46;1.70;;;1.60;;
4694;SDS011;2361;49.540;8.390;2023-12-29T02:45:09;1.80;;;1.50;;
4694;SDS011;2361;49.540;8.390;2023-12-29T02:47:32;1.60;;;1.50;;
4694;SDS011;2361;49.540;8.390;2023-12-29T02:49:54;1.70;;;1.70;;
4694;SDS011;2361;49.540;8.390;2023-12-29T02:52:16;1.90;;;1.60;;
4694;SDS011;2361;49.540;8.390;2023-12-29T02:54:38;1.70;;;1.60;;
4694;SDS011;2361;49.540;8.390;2023-12-29T02:57:00;1.80;;;1.70;;
4694;SDS011;2361;49.540;8.390;2023-12-29T02:59:22;1.60;;;1.50;;
4694;SDS011;2361;49.540;8.390;2023-12-29T03:01:44;1.70;;;1.60;;
4694;SDS011;2361;49.540;8.390;2023-12-29T03:04:06;1.55;;;1.45;;
4694;SDS011;2361;49.540;8.390;2023-12-29T03:06:28;1.90;;;1.80;;
4694;SDS011;2361;49.540;8.390;2023-12-29T03:08:50;1.83;;;1.73;;
4694;SDS011;2361;49.540;8.390;2023-12-29T03:11:12;1.70;;;1.60;;
4694;SDS011;2361;49.540;8.390;2023-12-29T03:13:35;1.60;;;1.50;;
4694;SDS011;2361;49.540;8.390;2023-12-29T03:15:57;1.70;;;1.70;;
4694;SDS011;2361;49.540;8.390;2023-12-29T03:18:19;1.50;;;1.45;;
4694;SDS011;2361;49.540;8.390;2023-12-29T03:20:41;1.50;;;1.40;;
4694;SDS011;2361;49.540;8.390;2023-12-29T03:23:03;2.60;;;1.40;;
4694;SDS011;2361;49.540;8.390;2023-12-29T03:25:25;1.20;;;1.20;;
4694;SDS011;2361;49.540;8.390;2023-12-29T03:27:47;1.60;;;1.30;;
4694;SDS011;2361;49.540;8.390;2023-12-29T03:30:09;1.40;;;1.30;;
4694;SDS011;2361;49.540;8.390;2023-12-29T03:32:32;1.58;;;1.48;;
4694;SDS011;2361;49.540;8.390;2023-12-29T03:34:54;1.40;;;1.40;;
4694;SDS011;2361;49.540;8.390;2023-12-29T03:37:16;1.80;;;1.70;;
4694;SDS011;2361;49.540;8.390;2023-12-29T03:39:38;1.55;;;1.55;;
4694;SDS011;2361;49.540;8.390;2023-12-29T03:42:00;1.70;;;1.60;;
4694;SDS011;2361;49.540;8.390;2023-12-29T03:44:22;1.45;;;1.45;;
4694;SDS011;2361;49.540;8.390;2023-12-29T03:46:45;1.90;;;1.65;;
4694;SDS011;2361;49.540;8.390;2023-12-29T03:49:07;1.60;;;1.50;;
4694;SDS011;2361;49.540;8.390;2023-12-29T03:51:29;1.50;;;1.40;;
4694;SDS011;2361;49.540;8.390;2023-12-29T03:53:51;1.60;;;1.60;;
4694;SDS011;2361;49.540;8.390;2023-12-29T03:56:14;1.63;;;1.52;;
4694;SDS011;2361;49.540;8.390;2023-12-29T03:58:39;1.45;;;1.40;;
4694;SDS011;2361;49.540;8.390;2023-12-29T04:01:01;1.80;;;1.60;;
4694;SDS011;2361;49.540;8.390;2023-12-29T04:03:23;1.70;;;1.60;;
4694;SDS011;2361;49.540;8.390;2023-12-29T04:05:45;1.60;;;1.50;;
4694;SDS011;2361;49.540;8.390;2023-12-29T04:08:07;2.72;;;1.80;;
4694;SDS011;2361;49.540;8.390;2023-12-29T04:10:29;1.38;;;1.38;;
4694;SDS011;2361;49.540;8.390;2023-12-29T04:12:51;1.85;;;1.50;;
4694;SDS011;2361;49.540;8.390;2023-12-29T04:15:13;1.50;;;1.50;;
4694;SDS011;2361;49.540;8.390;2023-12-29T04:17:35;2.90;;;1.67;;
4694;SDS011;2361;49.540;8.390;2023-12-29T04:19:57;1.60;;;1.50;;
4694;SDS011;2361;49.540;8.390;2023-12-29T04:22:19;1.45;;;1.35;;
4694;SDS011;2361;49.540;8.390;2023-12-29T04:24:41;1.70;;;1.60;;
4694;SDS011;2361;49.540;8.390;2023-12-29T04:27:03;1.50;;;1.40;;
4694;SDS011;2361;49.540;8.390;2023-12-29T04:29:25;1.80;;;1.70;;
4694;SDS011;2361;49.540;8.390;2023-12-29T04:31:47;1.58;;;1.58;;
4694;SDS011;2361;49.540;8.390;2023-12-29T04:34:09;1.70;;;1.60;;
4694;SDS011;2361;49.540;8.390;2023-12-29T04:36:31;1.70;;;1.60;;
4694;SDS011;2361;49.540;8.390;2023-12-29T04:38:53;1.60;;;1.50;;
4694;SDS011;2361;49.540;8.390;2023-12-29T04:41:15;1.70;;;1.60;;
4694;SDS011;2361;49.540;8.390;2023-12-29T04:43:37;1.80;;;1.70;;
4694;SDS011;2361;49.540;8.390;2023-12-29T04:45:59;1.90;;;1.80;;
4694;SDS011;2361;49.540;8.390;2023-12-29T04:48:21;1.88;;;1.77;;
4694;SDS011;2361;49.540;8.390;2023-12-29T04:50:43;1.73;;;1.63;;
4694;SDS011;2361;49.540;8.390;2023-12-29T04:53:05;1.80;;;1.70;;
4694;SDS011;2361;49.540;8.390;2023-12-29T04:55:27;1.70;;;1.60;;
4694;SDS011;2361;49.540;8.390;2023-12-29T04:57:49;1.73;;;1.63;;
4694;SDS011;2361;49.540;8.390;2023-12-29T05:00:11;1.90;;;1.70;;
4694;SDS011;2361;49.540;8.390;2023-12-29T05:02:34;2.65;;;1.70;;
4694;SDS011;2361;49.540;8.390;2023-12-29T05:04:56;3.40;;;1.70;;
4694;SDS011;2361;49.540;8.390;2023-12-29T05:07:18;1.73;;;1.70;;
4694;SDS011;2361;49.540;8.390;2023-12-29T05:09:40;1.80;;;1.70;;
4694;SDS011;2361;49.540;8.390;2023-12-29T05:12:02;1.70;;;1.60;;
4694;SDS011;2361;49.540;8.390;2023-12-29T05:14:24;1.70;;;1.70;;
4694;SDS011;2361;49.540;8.390;2023-12-29T05:16:46;1.80;;;1.70;;
4694;SDS011;2361;49.540;8.390;2023-12-29T05:19:07;2.20;;;1.70;;
4694;SDS011;2361;49.540;8.390;2023-12-29T05:21:30;1.52;;;1.50;;
4694;SDS011;2361;49.540;8.390;2023-12-29T05:23:52;1.30;;;1.30;;
4694;SDS011;2361;49.540;8.390;2023-12-29T05:26:14;1.70;;;1.60;;
4694;SDS011;2361;49.540;8.390;2023-12-29T05:28:36;1.55;;;1.45;;
4694;SDS011;2361;49.540;8.390;2023-12-29T05:30:58;1.80;;;1.60;;
4694;SDS011;2361;49.540;8.390;2023-12-29T05:33:24;1.75;;;1.70;;
4694;SDS011;2361;49.540;8.390;2023-12-29T05:35:46;1.35;;;1.35;;
4694;SDS011;2361;49.540;8.390;2023-12-29T05:38:08;1.70;;;1.60;;
4694;SDS011;2361;49.540;8.390;2023-12-29T05:40:30;2.10;;;1.70;;
4694;SDS011;2361;49.540;8.390;2023-12-29T05:42:52;1.80;;;1.70;;
4694;SDS011;2361;49.540;8.390;2023-12-29T05:45:17;2.30;;;2.10;;
4694;SDS011;2361;49.540;8.390;2023-12-29T05:47:39;2.55;;;2.42;;
4694;SDS011;2361;49.540;8.390;2023-12-29T05:50:01;2.80;;;2.60;;
4694;SDS011;2361;49.540;8.390;2023-12-29T05:52:24;2.70;;;2.50;;
4694;SDS011;2361;49.540;8.390;2023-12-29T05:54:46;3.08;;;2.88;;
4694;SDS011;2361;49.540;8.390;2023-12-29T05:57:10;3.60;;;3.30;;
4694;SDS011;2361;49.540;8.390;2023-12-29T05:59:33;4.10;;;3.70;;
4694;SDS011;2361;49.540;8.390;2023-12-29T06:01:55;4.00;;;3.60;;
4694;SDS011;2361;49.540;8.390;2023-12-29T06:04:17;3.08;;;2.88;;
4694;SDS011;2361;49.540;8.390;2023-12-29T06:06:41;3.60;;;3.30;;
4694;SDS011;2361;49.540;8.390;2023-12-29T06:09:03;3.42;;;2.95;;
4694;SDS011;2361;49.540;8.390;2023-12-29T06:11:25;3.00;;;2.80;;
4694;SDS011;2361;49.540;8.390;2023-12-29T06:13:48;3.72;;;3.00;;
4694;SDS011;2361;49.540;8.390;2023-12-29T06:16:16;3.00;;;2.80;;
4694;SDS011;2361;49.540;8.390;2023-12-29T06:18:42;3.10;;;2.80;;
4694;SDS011;2361;49.540;8.390;2023-12-29T06:21:04;2.67;;;2.47;;
4694;SDS011;2361;49.540;8.390;2023-12-29T06:23:26;2.40;;;2.20;;
4694;SDS011;2361;49.540;8.390;2023-12-29T06:25:48;2.97;;;2.67;;
4694;SDS011;2361;49.540;8.390;2023-12-29T06:28:10;2.83;;;2.53;;
4694;SDS011;2361;49.540;8.390;2023-12-29T06:30:32;2.20;;;2.10;;
4694;SDS011;2361;49.540;8.390;2023-12-29T06:32:54;2.58;;;2.38;;
4694;SDS011;2361;49.540;8.390;2023-12-29T06:35:16;2.90;;;2.70;;
4694;SDS011;2361;49.540;8.390;2023-12-29T06:37:38;2.83;;;2.63;;
4694;SDS011;2361;49.540;8.390;2023-12-29T06:40:00;4.20;;;2.80;;
4694;SDS011;2361;49.540;8.390;2023-12-29T06:42:22;3.15;;;2.85;;
4694;SDS011;2361;49.540;8.390;2023-12-29T06:44:45;2.90;;;2.50;;
4694;SDS011;2361;49.540;8.390;2023-12-29T06:47:07;2.60;;;2.40;;
4694;SDS011;2361;49.540;8.390;2023-12-29T06:49:30;1.88;;;1.77;;
4694;SDS011;2361;49.540;8.390;2023-12-29T06:51:53;1.90;;;1.63;;
4694;SDS011;2361;49.540;8.390;2023-12-29T06:54:15;1.70;;;1.60;;
4694;SDS011;2361;49.540;8.390;2023-12-29T06:56:37;1.40;;;1.40;;
4694;SDS011;2361;49.540;8.390;2023-12-29T06:59:02;1.20;;;1.20;;
4694;SDS011;2361;49.540;8.390;2023-12-29T07:01:24;1.20;;;1.20;;
4694;SDS011;2361;49.540;8.390;2023-12-29T07:03:46;1.50;;;1.40;;
4694;SDS011;2361;49.540;8.390;2023-12-29T07:06:09;1.50;;;1.37;;
4694;SDS011;2361;49.540;8.390;2023-12-29T07:08:31;1.42;;;1.40;;
4694;SDS011;2361;49.540;8.390;2023-12-29T07:10:56;1.10;;;1.10;;
4694;SDS011;2361;49.540;8.390;2023-12-29T07:13:18;1.02;;;1.02;;
4694;SDS011;2361;49.540;8.390;2023-12-29T07:15:40;1.20;;;1.10;;
4694;SDS011;2361;49.540;8.390;2023-12-29T07:18:02;1.10;;;1.10;;
4694;SDS011;2361;49.540;8.390;2023-12-29T07:20:25;1.10;;;1.10;;
4694;SDS011;2361;49.540;8.390;2023-12-29T07:22:47;1.20;;;1.10;;
4694;SDS011;2361;49.540;8.390;2023-12-29T07:25:09;1.10;;;1.10;;
4694;SDS011;2361;49.540;8.390;2023-12-29T07:27:33;1.40;;;0.90;;
4694;SDS011;2361;49.540;8.390;2023-12-29T07:29:55;2.85;;;1.10;;
4694;SDS011;2361;49.540;8.390;2023-12-29T07:32:17;0.80;;;0.80;;
4694;SDS011;2361;49.540;8.390;2023-12-29T07:34:39;0.80;;;0.80;;
4694;SDS011;2361;49.540;8.390;2023-12-29T07:37:02;1.60;;;0.70;;
4694;SDS011;2361;49.540;8.390;2023-12-29T07:39:24;0.70;;;0.70;;
4694;SDS011;2361;49.540;8.390;2023-12-29T07:41:46;1.35;;;1.00;;
4694;SDS011;2361;49.540;8.390;2023-12-29T07:44:10;1.27;;;0.90;;
4694;SDS011;2361;49.540;8.390;2023-12-29T07:46:33;0.90;;;0.90;;
4694;SDS011;2361;49.540;8.390;2023-12-29T07:48:55;1.13;;;1.00;;
4694;SDS011;2361;49.540;8.390;2023-12-29T07:51:17;4.40;;;1.80;;
4694;SDS011;2361;49.540;8.390;2023-12-29T07:53:40;2.25;;;1.05;;
4694;SDS011;2361;49.540;8.390;2023-12-29T07:56:01;1.10;;;1.10;;
4694;SDS011;2361;49.540;8.390;2023-12-29T07:58:24;2.20;;;1.20;;
4694;SDS011;2361;49.540;8.390;2023-12-29T08:00:46;3.05;;;1.20;;
4694;SDS011;2361;49.540;8.390;2023-12-29T08:03:08;1.60;;;1.30;;
4694;SDS011;2361;49.540;8.390;2023-12-29T08:05:30;1.48;;;1.30;;
4694;SDS011;2361;49.540;8.390;2023-12-29T08:07:52;1.08;;;1.08;;
4694;SDS011;2361;49.540;8.390;2023-12-29T08:10:13;1.23;;;1.23;;
4694;SDS011;2361;49.540;8.390;2023-12-29T08:12:35;1.20;;;1.10;;
4694;SDS011;2361;49.540;8.390;2023-12-29T08:14:57;1.40;;;1.00;;
4694;SDS011;2361;49.540;8.390;2023-12-29T08:17:19;1.20;;;1.10;;
4694;SDS011;2361;49.540;8.390;2023-12-29T08:19:41;1.10;;;1.00;;
4694;SDS011;2361;49.540;8.390;2023-12-29T08:22:04;1.00;;;1.00;;
4694;SDS011;2361;49.540;8.390;2023-12-29T08:24:26;1.10;;;1.00;;
4694;SDS011;2361;49.540;8.390;2023-12-29T08:26:49;1.00;;;1.00;;
4694;SDS011;2361;49.540;8.390;2023-12-29T08:29:11;1.20;;;1.10;;
4694;SDS011;2361;49.540;8.390;2023-12-29T08:31:33;1.70;;;1.13;;
4694;SDS011;2361;49.540;8.390;2023-12-29T08:33:55;1.25;;;1.15;;
4694;SDS011;2361;49.540;8.390;2023-12-29T08:36:20;0.90;;;0.90;;
4694;SDS011;2361;49.540;8.390;2023-12-29T08:38:42;1.20;;;1.10;;
4694;SDS011;2361;49.540;8.390;2023-12-29T08:41:04;1.58;;;0.90;;
4694;SDS011;2361;49.540;8.390;2023-12-29T08:43:26;1.10;;;1.00;;
4694;SDS011;2361;49.540;8.390;2023-12-29T08:45:48;1.30;;;1.20;;
4694;SDS011;2361;49.540;8.390;2023-12-29T08:48:10;1.70;;;1.20;;
4694;SDS011;2361;49.540;8.390;2023-12-29T08:50:32;1.70;;;1.50;;
4694;SDS011;2361;49.540;8.390;2023-12-29T08:52:57;1.60;;;1.50;;
4694;SDS011;2361;49.540;8.390;2023-12-29T08:55:19;1.83;;;1.60;;
4694;SDS011;2361;49.540;8.390;2023-12-29T08:57:41;1.80;;;1.70;;
4694;SDS011;2361;49.540;8.390;2023-12-29T09:00:03;1.20;;;1.10;;
4694;SDS011;2361;49.540;8.390;2023-12-29T09:02:26;2.70;;;1.30;;
4694;SDS011;2361;49.540;8.390;2023-12-29T09:04:48;0.80;;;0.80;;
4694;SDS011;2361;49.540;8.390;2023-12-29T09:07:10;1.00;;;0.90;;
4694;SDS011;2361;49.540;8.390;2023-12-29T09:09:32;1.10;;;1.10;;
4694;SDS011;2361;49.540;8.390;2023-12-29T09:11:54;0.70;;;0.70;;
4694;SDS011;2361;49.540;8.390;2023-12-29T09:14:16;2.00;;;1.35;;
4694;SDS011;2361;49.540;8.390;2023-12-29T09:16:38;2.30;;;1.00;;
4694;SDS011;2361;49.540;8.390;2023-12-29T09:19:04;1.20;;;1.10;;
4694;SDS011;2361;49.540;8.390;2023-12-29T09:21:46;1.00;;;0.90;;
4694;SDS011;2361;49.540;8.390;2023-12-29T09:24:08;1.00;;;1.00;;
4694;SDS011;2361;49.540;8.390;2023-12-29T09:26:30;1.70;;;1.20;;
4694;SDS011;2361;49.540;8.390;2023-12-29T09:28:52;1.77;;;1.10;;
4694;SDS011;2361;49.540;8.390;2023-12-29T09:31:14;1.70;;;1.10;;
4694;SDS011;2361;49.540;8.390;2023-12-29T09:33:36;1.00;;;1.00;;
4694;SDS011;2361;49.540;8.390;2023-12-29T09:35:58;1.90;;;0.90;;
4694;SDS011;2361;49.540;8.390;2023-12-29T09:38:20;1.00;;;1.00;;
4694;SDS011;2361;49.540;8.390;2023-12-29T09:40:45;2.58;;;0.93;;
4694;SDS011;2361;49.540;8.390;2023-12-29T09:43:10;0.70;;;0.70;;
4694;SDS011;2361;49.540;8.390;2023-12-29T09:45:33;1.00;;;0.90;;
4694;SDS011;2361;49.540;8.390;2023-12-29T09:47:59;0.60;;;0.60;;
4694;SDS011;2361;49.540;8.390;2023-12-29T09:50:25;0.82;;;0.82;;
4694;SDS011;2361;49.540;8.390;2023-12-29T09:52:47;1.30;;;1.03;;
4694;SDS011;2361;49.540;8.390;2023-12-29T09:55:13;1.10;;;1.00;;
4694;SDS011;2361;49.540;8.390;2023-12-29T09:57:36;1.20;;;1.10;;
4694;SDS011;2361;49.540;8.390;2023-12-29T09:59:59;0.90;;;0.90;;
4694;SDS011;2361;49.540;8.390;2023-12-29T10:02:21;0.80;;;0.80;;
4694;SDS011;2361;49.540;8.390;2023-12-29T10:04:43;1.00;;;0.77;;
4694;SDS011;2361;49.540;8.390;2023-12-29T10:07:06;2.10;;;0.80;;
4694;SDS011;2361;49.540;8.390;2023-12-29T10:09:29;1.10;;;1.00;;
4694;SDS011;2361;49.540;8.390;2023-12-29T10:11:53;0.88;;;0.88;;
4694;SDS011;2361;49.540;8.390;2023-12-29T10:14:29;0.80;;;0.80;;
4694;SDS011;2361;49.540;8.390;2023-12-29T10:17:03;0.88;;;0.85;;
4694;SDS011;2361;49.540;8.390;2023-12-29T10:22:21;1.20;;;0.60;;
4694;SDS011;2361;49.540;8.390;2023-12-29T10:25:10;2.10;;;0.80;;
4694;SDS011;2361;49.540;8.390;2023-12-29T10:27:32;0.70;;;0.70;;
4694;SDS011;2361;49.540;8.390;2023-12-29T10:29:54;0.60;;;0.60;;
4694;SDS011;2361;49.540;8.390;2023-12-29T10:32:16;0.90;;;0.80;;
4694;SDS011;2361;49.540;8.390;2023-12-29T10:34:38;0.60;;;0.60;;
4694;SDS011;2361;49.540;8.390;2023-12-29T10:37:01;0.80;;;0.70;;
4694;SDS011;2361;49.540;8.390;2023-12-29T10:39:25;3.50;;;0.75;;
4694;SDS011;2361;49.540;8.390;2023-12-29T10:41:49;0.57;;;0.57;;
4694;SDS011;2361;49.540;8.390;2023-12-29T10:44:11;0.80;;;0.80;;
4694;SDS011;2361;49.540;8.390;2023-12-29T10:46:33;1.00;;;0.90;;
4694;SDS011;2361;49.540;8.390;2023-12-29T10:48:59;1.60;;;0.73;;
4694;SDS011;2361;49.540;8.390;2023-12-29T10:51:35;0.70;;;0.70;;
4694;SDS011;2361;49.540;8.390;2023-12-29T10:53:58;2.30;;;1.30;;
4694;SDS011;2361;49.540;8.390;2023-12-29T10:56:21;0.80;;;0.70;;
4694;SDS011;2361;49.540;8.390;2023-12-29T10:58:43;1.00;;;0.60;;
4694;SDS011;2361;49.540;8.390;2023-12-29T11:01:06;0.90;;;0.90;;
4694;SDS011;2361;49.540;8.390;2023-12-29T11:03:40;1.30;;;0.70;;
4694;SDS011;2361;49.540;8.390;2023-12-29T11:06:02;0.70;;;0.70;;
4694;SDS011;2361;49.540;8.390;2023-12-29T11:08:24;1.42;;;0.70;;
4694;SDS011;2361;49.540;8.390;2023-12-29T11:10:49;1.10;;;1.00;;
4694;SDS011;2361;49.540;8.390;2023-12-29T11:13:11;0.82;;;0.82;;
4694;SDS011;2361;49.540;8.390;2023-12-29T11:15:38;0.80;;;0.80;;
4694;SDS011;2361;49.540;8.390;2023-12-29T11:18:06;0.80;;;0.70;;
4694;SDS011;2361;49.540;8.390;2023-12-29T11:20:30;0.63;;;0.60;;
4694;SDS011;2361;49.540;8.390;2023-12-29T11:22:53;2.47;;;0.90;;
4694;SDS011;2361;49.540;8.390;2023-12-29T11:25:15;0.80;;;0.60;;
4694;SDS011;2361;49.540;8.390;2023-12-29T11:27:37;2.33;;;1.00;;
4694;SDS011;2361;49.540;8.390;2023-12-29T11:30:00;1.30;;;0.70;;
4694;SDS011;2361;49.540;8.390;2023-12-29T11:32:40;0.80;;;0.80;;
4694;SDS011;2361;49.540;8.390;2023-12-29T11:35:41;0.75;;;0.60;;
4694;SDS011;2361;49.540;8.390;2023-12-29T11:41:07;0.70;;;0.70;;
4694;SDS011;2361;49.540;8.390;2023-12-29T11:43:38;0.70;;;0.70;;
4694;SDS011;2361;49.540;8.390;2023-12-29T11:46:00;0.80;;;0.80;;
4694;SDS011;2361;49.540;8.390;2023-12-29T11:51:32;0.70;;;0.70;;
4694;SDS011;2361;49.540;8.390;2023-12-29T11:54:05;2.50;;;0.80;;
4694;SDS011;2361;49.540;8.390;2023-12-29T11:56:33;1.30;;;0.82;;
4694;SDS011;2361;49.540;8.390;2023-12-29T11:59:03;0.73;;;0.73;;
4694;SDS011;2361;49.540;8.390;2023-12-29T12:01:39;0.80;;;0.80;;
4694;SDS011;2361;49.540;8.390;2023-12-29T12:04:01;0.80;;;0.80;;
4694;SDS011;2361;49.540;8.390;2023-12-29T12:06:39;0.90;;;0.80;;
4694;SDS011;2361;49.540;8.390;2023-12-29T12:09:20;0.70;;;0.70;;
4694;SDS011;2361;49.540;8.390;2023-12-29T12:11:45;0.60;;;0.60;;
4694;SDS011;2361;49.540;8.390;2023-12-29T12:14:10;0.70;;;0.70;;
4694;SDS011;2361;49.540;8.390;2023-12-29T12:19:07;0.93;;;0.93;;
4694;SDS011;2361;49.540;8.390;2023-12-29T12:21:30;0.80;;;0.80;;
4694;SDS011;2361;49.540;8.390;2023-12-29T12:23:52;0.70;;;0.70;;
4694;SDS011;2361;49.540;8.390;2023-12-29T12:26:16;0.70;;;0.70;;
4694;SDS011;2361;49.540;8.390;2023-12-29T12:28:39;0.70;;;0.70;;
4694;SDS011;2361;49.540;8.390;2023-12-29T12:31:08;1.50;;;0.70;;
4694;SDS011;2361;49.540;8.390;2023-12-29T12:33:30;1.60;;;0.80;;
4694;SDS011;2361;49.540;8.390;2023-12-29T12:36:00;2.40;;;0.70;;
4694;SDS011;2361;49.540;8.390;2023-12-29T12:38:22;0.60;;;0.60;;
4694;SDS011;2361;49.540;8.390;2023-12-29T12:40:45;0.60;;;0.60;;
4694;SDS011;2361;49.540;8.390;2023-12-29T12:43:08;0.60;;;0.60;;
4694;SDS011;2361;49.540;8.390;2023-12-29T12:45:47;0.70;;;0.70;;
4694;SDS011;2361;49.540;8.390;2023-12-29T12:48:24;0.60;;;0.60;;
4694;SDS011;2361;49.540;8.390;2023-12-29T12:50:55;0.80;;;0.80;;
4694;SDS011;2361;49.540;8.390;2023-12-29T12:53:18;0.73;;;0.70;;
4694;SDS011;2361;49.540;8.390;2023-12-29T12:55:43;1.50;;;0.98;;
4694;SDS011;2361;49.540;8.390;2023-12-29T12:58:05;0.77;;;0.60;;
4694;SDS011;2361;49.540;8.390;2023-12-29T13:00:27;0.80;;;0.80;;
4694;SDS011;2361;49.540;8.390;2023-12-29T13:02:51;1.10;;;1.00;;
4694;SDS011;2361;49.540;8.390;2023-12-29T13:05:14;1.42;;;0.93;;
4694;SDS011;2361;49.540;8.390;2023-12-29T13:07:38;0.80;;;0.80;;
4694;SDS011;2361;49.540;8.390;2023-12-29T13:10:01;0.80;;;0.80;;
4694;SDS011;2361;49.540;8.390;2023-12-29T13:12:25;0.93;;;0.82;;
4694;SDS011;2361;49.540;8.390;2023-12-29T13:14:47;0.95;;;0.95;;
4694;SDS011;2361;49.540;8.390;2023-12-29T13:17:10;1.92;;;0.80;;
4694;SDS011;2361;49.540;8.390;2023-12-29T13:19:35;1.10;;;0.70;;
4694;SDS011;2361;49.540;8.390;2023-12-29T13:21:57;1.90;;;0.80;;
4694;SDS011;2361;49.540;8.390;2023-12-29T13:24:20;0.70;;;0.70;;
4694;SDS011;2361;49.540;8.390;2023-12-29T13:26:45;0.80;;;0.80;;
4694;SDS011;2361;49.540;8.390;2023-12-29T13:29:13;0.90;;;0.90;;
4694;SDS011;2361;49.540;8.390;2023-12-29T13:31:36;1.00;;;0.98;;
4694;SDS011;2361;49.540;8.390;2023-12-29T13:34:00;0.80;;;0.80;;
4694;SDS011;2361;49.540;8.390;2023-12-29T13:36:32;1.08;;;1.00;;
4694;SDS011;2361;49.540;8.390;2023-12-29T13:39:14;1.10;;;1.10;;
4694;SDS011;2361;49.540;8.390;2023-12-29T13:41:59;1.00;;;1.00;;
4694;SDS011;2361;49.540;8.390;2023-12-29T13:44:24;1.10;;;1.10;;
4694;SDS011;2361;49.540;8.390;2023-12-29T13:46:48;1.30;;;1.20;;
4694;SDS011;2361;49.540;8.390;2023-12-29T13:49:12;1.58;;;1.48;;
4694;SDS011;2361;49.540;8.390;2023-12-29T13:51:36;1.13;;;1.13;;
4694;SDS011;2361;49.540;8.390;2023-12-29T13:53:59;1.00;;;1.00;;
4694;SDS011;2361;49.540;8.390;2023-12-29T13:56:22;1.40;;;1.20;;
4694;SDS011;2361;49.540;8.390;2023-12-29T13:58:44;1.30;;;1.30;;
4694;SDS011;2361;49.540;8.390;2023-12-29T14:01:13;1.50;;;1.40;;
4694;SDS011;2361;49.540;8.390;2023-12-29T14:03:54;1.20;;;1.03;;
4694;SDS011;2361;49.540;8.390;2023-12-29T14:06:27;1.00;;;1.00;;
4694;SDS011;2361;49.540;8.390;2023-12-29T14:08:57;0.90;;;0.90;;
4694;SDS011;2361;49.540;8.390;2023-12-29T14:11:19;1.20;;;1.10;;
4694;SDS011;2361;49.540;8.390;2023-12-29T14:13:42;1.20;;;1.20;;
4694;SDS011;2361;49.540;8.390;2023-12-29T14:16:05;1.00;;;0.90;;
4694;SDS011;2361;49.540;8.390;2023-12-29T14:19:09;1.50;;;1.40;;
4694;SDS011;2361;49.540;8.390;2023-12-29T14:21:29;0.90;;;0.90;;
4694;SDS011;2361;49.540;8.390;2023-12-29T14:26:39;1.10;;;1.00;;
4694;SDS011;2361;49.540;8.390;2023-12-29T14:29:14;1.30;;;0.90;;
4694;SDS011;2361;49.540;8.390;2023-12-29T14:31:42;1.50;;;1.00;;
4694;SDS011;2361;49.540;8.390;2023-12-29T14:34:06;1.10;;;1.00;;
4694;SDS011;2361;49.540;8.390;2023-12-29T14:36:29;1.20;;;0.90;;
4694;SDS011;2361;49.540;8.390;2023-12-29T14:38:52;0.70;;;0.70;;
4694;SDS011;2361;49.540;8.390;2023-12-29T14:41:14;1.88;;;0.90;;
4694;SDS011;2361;49.540;8.390;2023-12-29T14:43:36;2.40;;;0.70;;
4694;SDS011;2361;49.540;8.390;2023-12-29T14:45:58;0.80;;;0.80;;
4694;SDS011;2361;49.540;8.390;2023-12-29T14:48:20;0.80;;;0.80;;
4694;SDS011;2361;49.540;8.390;2023-12-29T14:50:45;1.20;;;1.00;;
4694;SDS011;2361;49.540;8.390;2023-12-29T14:53:07;0.80;;;0.80;;
4694;SDS011;2361;49.540;8.390;2023-12-29T14:55:32;0.70;;;0.70;;
4694;SDS011;2361;49.540;8.390;2023-12-29T14:57:54;0.80;;;0.80;;
4694;SDS011;2361;49.540;8.390;2023-12-29T15:00:16;0.60;;;0.60;;
4694;SDS011;2361;49.540;8.390;2023-12-29T15:02:38;0.65;;;0.65;;
4694;SDS011;2361;49.540;8.390;2023-12-29T15:05:03;0.80;;;0.80;;
4694;SDS011;2361;49.540;8.390;2023-12-29T15:07:25;0.70;;;0.70;;
4694;SDS011;2361;49.540;8.390;2023-12-29T15:09:51;0.70;;;0.70;;